createdAt,value
2022-08-27T00:04:43.551Z,99.90
2022-08-27T00:09:48.247Z,99.90
2022-08-27T00:14:51.889Z,99.90
2022-08-27T00:19:54.993Z,99.90
2022-08-27T00:24:59.513Z,99.90
2022-08-27T00:30:03.003Z,99.90
2022-08-27T00:35:06.556Z,99.90
2022-08-27T00:40:12.998Z,99.90
2022-08-27T00:45:17.197Z,99.90
2022-08-27T00:50:22.007Z,99.90
2022-08-27T00:55:28.755Z,99.90
2022-08-27T01:00:31.915Z,99.90
2022-08-27T01:05:36.016Z,99.90
2022-08-27T01:10:41.444Z,99.90
2022-08-27T01:15:44.809Z,99.90
2022-08-27T01:20:51.474Z,99.90
2022-08-27T01:25:56.368Z,99.90
2022-08-27T01:30:59.481Z,99.90
2022-08-27T01:36:02.585Z,99.90
2022-08-27T01:41:07.563Z,99.90
2022-08-27T01:46:11.039Z,99.90
2022-08-27T01:51:14.222Z,99.90
2022-08-27T01:56:19.089Z,99.90
2022-08-27T02:01:22.442Z,99.90
2022-08-27T02:06:25.621Z,99.90
2022-08-27T02:11:30.147Z,99.90
2022-08-27T02:16:33.608Z,99.90
2022-08-27T02:21:40.411Z,99.90
2022-08-27T02:26:44.910Z,99.90
2022-08-27T02:31:48.260Z,99.90
2022-08-27T02:36:53.971Z,99.90
2022-08-27T02:41:58.862Z,99.90
2022-08-27T02:47:02.682Z,99.90
2022-08-27T02:52:05.886Z,99.90
2022-08-27T02:57:10.801Z,99.90
2022-08-27T03:02:14.785Z,99.90
2022-08-27T03:07:19.035Z,99.90
2022-08-27T03:12:24.888Z,99.90
2022-08-27T03:17:45.617Z,99.90
2022-08-27T03:22:49.250Z,99.90
2022-08-27T03:27:54.066Z,99.90
2022-08-27T03:32:57.461Z,99.90
2022-08-27T03:38:00.781Z,99.90
2022-08-27T03:43:05.760Z,99.90
2022-08-27T03:48:09.213Z,99.90
2022-08-27T03:53:12.847Z,99.90
2022-08-27T03:58:18.065Z,99.90
2022-08-27T04:03:21.483Z,99.90
2022-08-27T04:08:25.410Z,99.90
2022-08-27T04:13:30.164Z,99.90
2022-08-27T04:18:33.525Z,99.90
2022-08-27T04:23:37.006Z,99.90
2022-08-27T04:28:41.731Z,99.90
2022-08-27T04:33:50.866Z,99.90
2022-08-27T04:38:54.466Z,99.90
2022-08-27T04:44:03.829Z,99.90
2022-08-27T04:49:10.546Z,99.90
2022-08-27T04:54:14.377Z,99.90
2022-08-27T04:59:19.085Z,99.90
2022-08-27T05:04:22.504Z,99.90
2022-08-27T05:09:29.959Z,99.90
2022-08-27T05:14:34.688Z,99.90
2022-08-27T05:19:39.136Z,99.90
2022-08-27T05:24:44.244Z,99.90
2022-08-27T05:29:51.770Z,99.90
2022-08-27T05:34:55.118Z,99.90
2022-08-27T05:39:58.492Z,99.90
2022-08-27T05:45:03.241Z,99.90
2022-08-27T05:50:07.448Z,99.90
2022-08-27T05:55:11.052Z,99.90
2022-08-27T06:00:33.825Z,99.90
2022-08-27T06:05:37.222Z,99.90
2022-08-27T06:10:42.741Z,99.90
2022-08-27T06:15:47.524Z,99.90
2022-08-27T06:20:50.901Z,99.90
2022-08-27T06:25:54.677Z,99.90
2022-08-27T06:31:05.876Z,99.90
2022-08-27T06:36:11.787Z,99.90
2022-08-27T06:41:23.399Z,99.90
2022-08-27T06:46:30.946Z,99.90
2022-08-27T06:51:37.153Z,99.90
2022-08-27T06:56:41.588Z,99.90
2022-08-27T07:01:51.445Z,99.90
2022-08-27T07:06:54.961Z,99.90
2022-08-27T07:11:58.795Z,99.90
2022-08-27T07:17:03.507Z,99.90
2022-08-27T07:22:07.266Z,99.90
2022-08-27T07:27:10.740Z,99.90
2022-08-27T07:32:15.813Z,99.90
2022-08-27T07:37:19.169Z,99.90
2022-08-27T07:42:39.860Z,99.90
2022-08-27T07:47:44.942Z,99.90
2022-08-27T07:52:48.283Z,99.90
2022-08-27T07:57:52.713Z,99.90
2022-08-27T08:02:57.631Z,99.90
2022-08-27T08:08:02.305Z,99.90
2022-08-27T08:13:06.002Z,99.90
2022-08-27T08:18:10.903Z,99.90
2022-08-27T08:23:14.396Z,99.90
2022-08-27T08:28:17.713Z,99.90
2022-08-27T08:33:22.880Z,99.90
2022-08-27T08:38:26.811Z,99.90
2022-08-27T08:43:35.802Z,99.90
2022-08-27T08:48:43.744Z,99.90
2022-08-27T08:53:53.112Z,99.90
2022-08-27T08:59:03.444Z,96.60
2022-08-27T09:04:12.786Z,95.90
2022-08-27T09:09:28.699Z,94.90
2022-08-27T09:14:37.991Z,99.90
2022-08-27T09:19:43.801Z,99.90
2022-08-27T09:24:54.422Z,99.90
2022-08-27T09:29:58.569Z,99.90
2022-08-27T09:35:06.949Z,99.90
2022-08-27T09:40:23.017Z,99.90
2022-08-27T09:45:29.890Z,99.90
2022-08-27T09:50:43.429Z,99.90
2022-08-27T09:55:49.629Z,99.50
2022-08-27T10:01:01.927Z,99.90
2022-08-27T10:06:07.504Z,99.90
2022-08-27T10:11:15.618Z,99.90
2022-08-27T10:16:47.411Z,99.90
2022-08-27T10:21:58.283Z,99.90
2022-08-27T10:27:11.634Z,99.90
2022-08-27T10:32:33.547Z,99.90
2022-08-27T10:37:50.407Z,99.90
2022-08-27T10:43:03.564Z,99.90
2022-08-27T10:48:17.617Z,99.90
2022-08-27T10:53:30.774Z,99.90
2022-08-27T10:58:47.325Z,99.90
2022-08-27T11:03:55.997Z,99.90
2022-08-27T11:09:07.553Z,99.90
2022-08-27T11:14:23.335Z,97.80
2022-08-27T11:19:31.553Z,94.20
2022-08-27T11:24:44.083Z,95.10
2022-08-27T11:30:00.090Z,95.40
2022-08-27T11:35:07.959Z,95.80
2022-08-27T11:40:51.704Z,95.20
2022-08-27T11:45:58.705Z,93.10
2022-08-27T11:51:04.536Z,91.10
2022-08-27T11:56:21.297Z,92.50
2022-08-27T12:01:33.162Z,91.30
2022-08-27T12:06:44.817Z,91.40
2022-08-27T12:12:01.818Z,93.10
2022-08-27T12:17:13.656Z,93.50
2022-08-27T12:22:58.599Z,92.60
2022-08-27T12:28:07.103Z,84.00
2022-08-27T12:33:20.636Z,75.30
2022-08-27T12:38:42.730Z,76.50
2022-08-27T12:43:51.252Z,67.60
2022-08-27T12:48:59.294Z,62.20
2022-08-27T12:54:31.227Z,74.40
2022-08-27T12:59:55.107Z,85.20
2022-08-27T13:05:04.468Z,90.70
2022-08-27T13:10:16.365Z,92.40
2022-08-27T13:15:22.145Z,99.90
2022-08-27T13:20:28.051Z,99.90
2022-08-27T13:25:34.788Z,99.90
2022-08-27T13:30:44.325Z,99.90
2022-08-27T13:35:49.015Z,99.90
2022-08-27T13:40:57.947Z,99.90
2022-08-27T13:46:07.594Z,99.90
2022-08-27T13:51:13.315Z,99.90
2022-08-27T13:56:30.185Z,99.90
2022-08-27T14:01:35.388Z,99.90
2022-08-27T14:06:44.454Z,99.90
2022-08-27T14:11:49.822Z,99.90
2022-08-27T14:17:01.060Z,99.90
2022-08-27T14:22:05.649Z,99.90
2022-08-27T14:27:13.932Z,99.90
2022-08-27T14:32:21.390Z,99.90
2022-08-27T14:37:25.660Z,99.90
2022-08-27T14:42:29.368Z,99.90
2022-08-27T14:47:34.354Z,99.90
2022-08-27T14:52:39.563Z,99.90
2022-08-27T14:57:52.489Z,99.90
2022-08-27T15:02:58.048Z,99.90
2022-08-27T15:08:01.436Z,98.90
2022-08-27T15:13:05.373Z,98.50
2022-08-27T15:18:10.757Z,98.20
2022-08-27T15:23:15.672Z,99.30
2022-08-27T15:28:19.185Z,99.90
2022-08-27T15:33:24.696Z,99.10
2022-08-27T15:38:28.278Z,82.80
2022-08-27T15:43:31.724Z,71.60
2022-08-27T15:48:36.600Z,68.10
2022-08-27T15:53:41.686Z,71.90
2022-08-27T15:58:45.048Z,69.60
2022-08-27T16:03:50.177Z,73.50
2022-08-27T16:08:54.292Z,71.80
2022-08-27T16:13:57.632Z,69.50
2022-08-27T16:19:04.032Z,74.20
2022-08-27T16:24:09.502Z,73.20
2022-08-27T16:29:14.340Z,75.40
2022-08-27T16:34:22.926Z,73.30
2022-08-27T16:39:30.445Z,71.90
2022-08-27T16:44:36.598Z,72.60
2022-08-27T16:49:58.437Z,71.40
2022-08-27T16:55:01.767Z,73.30
2022-08-27T17:00:06.433Z,79.00
2022-08-27T17:05:33.610Z,85.80
2022-08-27T17:10:40.838Z,90.00
2022-08-27T17:15:44.828Z,93.60
2022-08-27T17:20:49.834Z,98.80
2022-08-27T17:25:53.270Z,99.90
2022-08-27T17:30:57.607Z,99.90
2022-08-27T17:36:02.376Z,99.90
2022-08-27T17:41:13.099Z,99.90
2022-08-27T17:46:16.697Z,99.90
2022-08-27T17:51:22.867Z,99.90
2022-08-27T17:56:26.555Z,99.90
2022-08-27T18:01:33.287Z,99.90
2022-08-27T18:06:38.298Z,99.90
2022-08-27T18:11:41.825Z,99.90
2022-08-27T18:16:45.203Z,99.90
2022-08-27T18:21:50.029Z,99.90
2022-08-27T18:26:53.530Z,99.90
2022-08-27T18:31:57.394Z,99.90
2022-08-27T18:37:02.215Z,99.90
2022-08-27T18:42:06.884Z,99.90
2022-08-27T18:47:10.246Z,99.90
2022-08-27T18:52:15.268Z,99.90
2022-08-27T18:57:18.730Z,99.90
2022-08-27T19:02:22.765Z,99.90
2022-08-27T19:07:29.715Z,99.90
2022-08-27T19:12:33.187Z,99.90
2022-08-27T19:17:37.693Z,99.90
2022-08-27T19:22:42.450Z,99.90
2022-08-27T19:27:47.340Z,99.90
2022-08-27T19:32:54.796Z,99.90
2022-08-27T19:38:02.030Z,99.90
2022-08-27T19:43:07.175Z,99.90
2022-08-27T19:48:12.631Z,99.90
2022-08-27T19:53:18.318Z,99.90
2022-08-27T19:58:21.980Z,99.90
2022-08-27T20:03:25.948Z,99.90
2022-08-27T20:08:30.861Z,99.90
2022-08-27T20:13:34.720Z,99.90
2022-08-27T20:18:38.168Z,99.90
2022-08-27T20:23:43.664Z,99.90
2022-08-27T20:28:47.437Z,99.90
2022-08-27T20:33:51.189Z,99.90
2022-08-27T20:38:56.229Z,99.90
2022-08-27T20:43:59.543Z,99.90
2022-08-27T20:49:04.547Z,99.90
2022-08-27T20:54:09.298Z,99.90
2022-08-27T20:59:30.385Z,99.90
2022-08-27T21:04:38.850Z,99.90
2022-08-27T21:09:56.419Z,99.90
2022-08-27T21:15:02.446Z,99.90
2022-08-27T21:20:07.740Z,99.90
2022-08-27T21:25:14.372Z,99.90
2022-08-27T21:30:18.039Z,99.90
2022-08-27T21:35:21.361Z,99.90
2022-08-27T21:40:28.141Z,99.90
2022-08-27T21:45:31.946Z,99.90
2022-08-27T21:50:35.362Z,99.90
2022-08-27T21:55:40.652Z,99.90
2022-08-27T22:00:45.953Z,99.90
2022-08-27T22:05:49.562Z,99.90
2022-08-27T22:10:57.981Z,99.90
2022-08-27T22:16:01.653Z,99.90
2022-08-27T22:21:06.237Z,99.90
2022-08-27T22:26:11.009Z,99.90
2022-08-27T22:31:14.411Z,99.90
2022-08-27T22:36:17.775Z,99.90
2022-08-27T22:41:22.639Z,99.90
2022-08-27T22:46:26.972Z,99.90
2022-08-27T22:51:30.344Z,99.90
2022-08-27T22:56:35.092Z,99.90
2022-08-27T23:01:39.444Z,99.90
2022-08-27T23:06:42.815Z,99.90
2022-08-27T23:11:47.540Z,99.90
2022-08-27T23:16:50.952Z,99.90
2022-08-27T23:21:54.591Z,99.90
2022-08-27T23:27:16.703Z,99.90
2022-08-27T23:32:20.047Z,99.90
2022-08-27T23:37:24.008Z,99.90
2022-08-27T23:42:29.021Z,99.90
2022-08-27T23:47:32.415Z,99.90
2022-08-27T23:52:36.058Z,99.90
2022-08-27T23:57:41.133Z,99.90
